createdAt,value
2022-11-14T00:00:50.593Z,14.30
2022-11-14T00:04:10.754Z,13.03
2022-11-14T00:07:34.789Z,15.00
2022-11-14T00:10:54.664Z,13.67
2022-11-14T00:14:14.723Z,15.30
2022-11-14T00:17:34.653Z,15.47
2022-11-14T00:20:55.044Z,15.30
2022-11-14T00:24:15.008Z,15.73
2022-11-14T00:27:35.154Z,15.37
2022-11-14T00:30:55.325Z,15.53
2022-11-14T00:34:15.582Z,15.80
2022-11-14T00:37:35.739Z,16.23
2022-11-14T00:40:55.661Z,15.93
2022-11-14T00:44:15.552Z,15.47
2022-11-14T00:47:35.966Z,14.80
2022-11-14T00:50:56.042Z,15.70
2022-11-14T00:54:15.891Z,14.33
2022-11-14T00:57:35.704Z,14.03
2022-11-14T01:00:55.654Z,14.33
2022-11-14T01:04:15.937Z,12.77
2022-11-14T01:07:36.453Z,12.67
2022-11-14T01:10:56.543Z,13.20
2022-11-14T01:14:16.633Z,13.30
2022-11-14T01:17:36.483Z,13.23
2022-11-14T01:20:56.454Z,13.30
2022-11-14T01:24:16.412Z,14.03
2022-11-14T01:27:36.375Z,14.27
2022-11-14T01:30:56.301Z,14.93
2022-11-14T01:34:16.453Z,14.23
2022-11-14T01:37:36.289Z,13.90
2022-11-14T01:40:56.328Z,13.47
2022-11-14T01:44:17.184Z,14.07
2022-11-14T01:47:37.604Z,13.27
2022-11-14T01:50:59.559Z,13.83
2022-11-14T01:54:24.149Z,13.60
2022-11-14T01:57:46.024Z,13.43
2022-11-14T02:01:06.547Z,13.73
2022-11-14T02:04:28.912Z,12.97
2022-11-14T02:07:49.214Z,13.37
2022-11-14T02:11:12.555Z,12.87
2022-11-14T02:14:33.721Z,13.20
2022-11-14T02:17:54.194Z,14.27
2022-11-14T02:21:14.491Z,13.43
2022-11-14T02:24:34.625Z,12.93
2022-11-14T02:27:55.880Z,13.50
2022-11-14T02:31:16.160Z,13.63
2022-11-14T02:34:36.688Z,12.87
2022-11-14T02:37:56.868Z,14.10
2022-11-14T02:41:17.111Z,12.80
2022-11-14T02:44:37.133Z,13.17
2022-11-14T02:47:57.191Z,13.53
2022-11-14T02:51:17.499Z,12.87
2022-11-14T02:54:37.977Z,12.67
2022-11-14T02:57:58.332Z,13.03
2022-11-14T03:01:21.244Z,13.73
2022-11-14T03:04:42.081Z,13.87
2022-11-14T03:08:02.213Z,13.07
2022-11-14T03:11:22.248Z,12.70
2022-11-14T03:14:42.329Z,14.13
2022-11-14T03:18:02.321Z,14.37
2022-11-14T03:21:23.088Z,13.67
2022-11-14T03:24:42.856Z,14.53
2022-11-14T03:28:02.869Z,14.30
2022-11-14T03:31:22.640Z,14.37
2022-11-14T03:34:43.245Z,13.80
2022-11-14T03:38:03.414Z,14.43
2022-11-14T03:41:23.791Z,13.67
2022-11-14T03:44:43.795Z,15.10
2022-11-14T03:48:04.535Z,14.93
2022-11-14T03:51:25.416Z,13.77
2022-11-14T03:54:48.136Z,13.37
2022-11-14T03:58:10.413Z,14.70
2022-11-14T04:01:30.311Z,16.03
2022-11-14T04:04:50.100Z,15.13
2022-11-14T04:08:11.760Z,14.97
2022-11-14T04:11:32.221Z,14.17
2022-11-14T04:14:52.446Z,14.43
2022-11-14T04:18:12.513Z,15.37
2022-11-14T04:21:32.623Z,15.13
2022-11-14T04:24:52.579Z,14.83
2022-11-14T04:28:13.094Z,14.97
2022-11-14T04:31:33.097Z,14.93
2022-11-14T04:34:53.235Z,14.63
2022-11-14T04:38:13.315Z,15.03
2022-11-14T04:41:33.211Z,15.10
2022-11-14T04:44:53.055Z,16.03
2022-11-14T04:48:13.441Z,15.13
2022-11-14T04:51:33.477Z,14.33
2022-11-14T04:54:53.384Z,15.93
2022-11-14T04:58:13.249Z,15.60
2022-11-14T05:01:33.365Z,16.30
2022-11-14T05:04:53.883Z,17.77
2022-11-14T05:08:14.196Z,18.77
2022-11-14T05:11:34.501Z,24.73
2022-11-14T05:14:54.468Z,20.07
2022-11-14T05:18:14.444Z,20.93
2022-11-14T05:21:34.679Z,23.53
2022-11-14T05:24:54.882Z,23.70
2022-11-14T05:28:15.421Z,19.97
2022-11-14T05:31:35.295Z,20.90
2022-11-14T05:34:55.641Z,21.03
2022-11-14T05:38:16.221Z,21.57
2022-11-14T05:41:36.689Z,22.63
2022-11-14T05:44:56.653Z,22.77
2022-11-14T05:48:16.563Z,22.57
2022-11-14T05:51:36.352Z,21.43
2022-11-14T05:54:56.410Z,20.13
2022-11-14T05:58:16.366Z,21.57
2022-11-14T06:01:36.434Z,22.60
2022-11-14T06:04:56.799Z,22.20
2022-11-14T06:08:16.700Z,22.50
2022-11-14T06:11:36.517Z,20.73
2022-11-14T06:14:56.522Z,23.53
2022-11-14T06:18:16.614Z,22.73
2022-11-14T06:21:36.998Z,25.63
2022-11-14T06:24:57.007Z,26.33
2022-11-14T06:28:16.897Z,27.23
2022-11-14T06:31:37.441Z,26.93
2022-11-14T06:34:57.981Z,27.30
2022-11-14T06:38:17.936Z,29.10
2022-11-14T06:41:37.906Z,32.23
2022-11-14T06:44:57.643Z,35.07
2022-11-14T06:48:17.784Z,37.77
2022-11-14T06:51:37.915Z,40.43
2022-11-14T06:54:57.848Z,24.33
2022-11-14T06:58:18.461Z,38.23
2022-11-14T07:01:38.461Z,35.33
2022-11-14T07:04:58.609Z,30.17
2022-11-14T07:08:21.249Z,26.73
2022-11-14T07:11:41.572Z,27.47
2022-11-14T07:15:01.565Z,25.73
2022-11-14T07:18:21.453Z,27.87
2022-11-14T07:21:41.284Z,28.37
2022-11-14T07:25:01.552Z,22.93
2022-11-14T07:28:21.590Z,23.40
2022-11-14T07:31:41.926Z,18.33
2022-11-14T07:35:02.638Z,17.23
2022-11-14T07:38:22.848Z,20.40
2022-11-14T07:41:43.263Z,28.37
2022-11-14T07:45:03.520Z,51.53
2022-11-14T07:48:23.655Z,35.17
2022-11-14T07:51:43.897Z,34.57
2022-11-14T07:55:03.821Z,32.07
2022-11-14T07:58:23.955Z,23.93
2022-11-14T08:01:44.325Z,28.93
2022-11-14T08:05:04.764Z,23.10
2022-11-14T08:08:24.898Z,27.47
2022-11-14T08:11:47.795Z,22.87
2022-11-14T08:15:08.873Z,17.30
2022-11-14T08:18:29.326Z,24.97
2022-11-14T08:21:49.931Z,18.40
2022-11-14T08:25:09.864Z,17.53
2022-11-14T08:28:30.807Z,20.13
2022-11-14T08:31:53.513Z,23.63
2022-11-14T08:35:17.952Z,18.77
2022-11-14T08:38:38.431Z,20.70
2022-11-14T08:41:58.623Z,21.70
2022-11-14T08:45:18.557Z,21.47
2022-11-14T08:48:38.735Z,20.53
2022-11-14T08:51:58.988Z,21.33
2022-11-14T08:55:20.217Z,21.30
2022-11-14T08:58:40.368Z,19.20
2022-11-14T09:02:00.588Z,17.70
2022-11-14T09:05:21.473Z,16.67
2022-11-14T09:08:41.639Z,15.83
2022-11-14T09:12:02.098Z,15.50
2022-11-14T09:15:22.363Z,14.43
2022-11-14T09:18:42.439Z,15.30
2022-11-14T09:22:03.262Z,13.93
2022-11-14T09:25:23.352Z,13.17
2022-11-14T09:28:43.953Z,12.67
2022-11-14T09:32:04.402Z,12.00
2022-11-14T09:35:24.648Z,16.33
2022-11-14T09:38:44.963Z,15.20
2022-11-14T09:42:17.722Z,15.80
2022-11-14T09:45:39.311Z,14.00
2022-11-14T09:48:59.914Z,12.90
2022-11-14T09:52:26.041Z,13.17
2022-11-14T09:55:46.642Z,13.97
2022-11-14T09:59:09.475Z,14.03
2022-11-14T10:02:29.334Z,14.37
2022-11-14T10:05:49.817Z,14.77
2022-11-14T10:09:30.152Z,14.43
2022-11-14T10:13:11.015Z,14.13
2022-11-14T10:16:31.272Z,15.43
2022-11-14T10:20:03.314Z,14.60
2022-11-14T10:23:35.798Z,13.83
2022-11-14T10:27:02.802Z,15.97
2022-11-14T10:30:23.360Z,14.67
2022-11-14T10:34:05.817Z,13.80
2022-11-14T10:37:32.322Z,15.30
2022-11-14T10:40:59.341Z,14.53
2022-11-14T10:44:22.893Z,13.87
2022-11-14T10:47:51.721Z,14.67
2022-11-14T10:51:18.514Z,15.23
2022-11-14T10:54:38.626Z,14.10
2022-11-14T10:57:58.680Z,13.70
2022-11-14T11:01:37.531Z,13.83
2022-11-14T11:05:04.571Z,17.30
2022-11-14T11:08:44.636Z,13.43
2022-11-14T11:12:05.801Z,13.03
2022-11-14T11:15:39.098Z,15.17
2022-11-14T11:19:22.003Z,17.33
2022-11-14T11:22:43.370Z,14.90
2022-11-14T11:26:09.554Z,13.03
2022-11-14T11:29:29.921Z,13.20
2022-11-14T11:32:49.795Z,13.63
2022-11-14T11:36:15.110Z,12.77
2022-11-14T11:39:40.376Z,12.60
2022-11-14T11:47:01.263Z,15.07
2022-11-14T11:50:24.307Z,13.20
2022-11-14T11:53:46.946Z,12.43
2022-11-14T11:57:18.565Z,12.43
2022-11-14T12:00:41.899Z,11.77
2022-11-14T12:04:02.367Z,11.93
2022-11-14T12:07:24.373Z,11.93
2022-11-14T12:10:45.875Z,10.87
2022-11-14T12:14:24.956Z,12.10
2022-11-14T12:17:53.709Z,11.90
2022-11-14T12:21:19.784Z,12.10
2022-11-14T12:24:58.717Z,13.03
2022-11-14T12:28:37.972Z,11.97
2022-11-14T12:32:03.037Z,11.40
2022-11-14T12:35:27.961Z,12.37
2022-11-14T12:38:53.799Z,11.47
2022-11-14T12:42:19.316Z,11.87
2022-11-14T12:45:42.300Z,11.07
2022-11-14T12:49:22.086Z,11.73
2022-11-14T12:52:45.534Z,11.77
2022-11-14T12:56:05.940Z,13.77
2022-11-14T12:59:39.472Z,12.23
2022-11-14T13:03:09.544Z,14.63
2022-11-14T13:06:44.520Z,14.33
2022-11-14T13:10:27.978Z,14.30
2022-11-14T13:14:20.498Z,14.43
2022-11-14T13:17:59.557Z,14.33
2022-11-14T13:21:45.315Z,15.20
2022-11-14T13:25:11.967Z,15.93
2022-11-14T13:28:38.609Z,15.23
2022-11-14T13:31:58.561Z,16.80
2022-11-14T13:35:32.343Z,18.80
2022-11-14T13:38:55.663Z,16.90
2022-11-14T13:42:16.058Z,17.13
2022-11-14T13:45:42.571Z,17.57
2022-11-14T13:49:06.125Z,16.53
2022-11-14T13:52:28.330Z,15.93
2022-11-14T13:56:04.686Z,16.37
2022-11-14T13:59:24.798Z,16.70
2022-11-14T14:02:45.167Z,17.17
2022-11-14T14:06:34.715Z,17.73
2022-11-14T14:10:06.928Z,17.70
2022-11-14T14:13:30.277Z,18.97
2022-11-14T14:16:58.960Z,19.13
2022-11-14T14:20:31.387Z,20.03
2022-11-14T14:24:02.488Z,20.73
2022-11-14T14:27:22.638Z,22.13
2022-11-14T14:31:00.367Z,20.50
2022-11-14T14:34:20.603Z,20.87
2022-11-14T14:37:49.735Z,22.30
2022-11-14T14:41:11.128Z,22.10
2022-11-14T14:44:40.647Z,24.13
2022-11-14T14:48:05.710Z,24.40
2022-11-14T14:51:35.968Z,24.77
2022-11-14T14:54:56.566Z,25.13
2022-11-14T14:58:27.226Z,26.70
2022-11-14T15:01:47.996Z,25.83
2022-11-14T15:05:08.572Z,27.63
2022-11-14T15:08:31.188Z,27.53
2022-11-14T15:11:56.392Z,29.23
2022-11-14T15:15:16.956Z,27.73
2022-11-14T15:18:37.596Z,28.43
2022-11-14T15:22:05.616Z,29.13
2022-11-14T15:25:25.489Z,27.67
2022-11-14T15:28:46.073Z,27.97
2022-11-14T15:32:05.965Z,28.57
2022-11-14T15:35:27.847Z,28.63
2022-11-14T15:39:01.857Z,29.47
2022-11-14T15:42:23.503Z,30.30
2022-11-14T15:45:43.949Z,26.80
2022-11-14T15:49:16.021Z,29.30
2022-11-14T15:52:37.807Z,28.87
2022-11-14T15:55:58.917Z,32.97
2022-11-14T15:59:19.051Z,31.80
2022-11-14T16:02:46.204Z,31.80
2022-11-14T16:06:06.658Z,33.07
2022-11-14T16:09:26.943Z,35.80
2022-11-14T16:12:52.212Z,35.90
2022-11-14T16:16:12.879Z,34.63
2022-11-14T16:19:33.163Z,33.97
2022-11-14T16:22:53.598Z,35.50
2022-11-14T16:26:13.728Z,34.53
2022-11-14T16:29:33.688Z,34.53
2022-11-14T16:32:55.986Z,40.87
2022-11-14T16:36:16.304Z,38.03
2022-11-14T16:39:38.114Z,31.63
2022-11-14T16:43:00.933Z,34.57
2022-11-14T16:46:21.709Z,35.77
2022-11-14T16:49:41.527Z,39.27
2022-11-14T16:53:01.379Z,38.00
2022-11-14T16:56:21.787Z,33.93
2022-11-14T16:59:41.989Z,34.90
2022-11-14T17:03:02.377Z,37.20
2022-11-14T17:06:22.273Z,37.33
2022-11-14T17:09:42.492Z,35.03
2022-11-14T17:13:02.245Z,41.33
2022-11-14T17:16:22.196Z,40.20
2022-11-14T17:19:46.123Z,34.93
2022-11-14T17:23:06.840Z,38.17
2022-11-14T17:26:27.689Z,39.63
2022-11-14T17:29:47.858Z,33.77
2022-11-14T17:33:07.935Z,36.27
2022-11-14T17:36:29.414Z,34.77
2022-11-14T17:39:49.349Z,33.50
2022-11-14T17:43:09.369Z,34.80
2022-11-14T17:46:30.325Z,34.47
2022-11-14T17:49:50.405Z,37.13
2022-11-14T17:53:10.732Z,34.70
2022-11-14T17:56:31.156Z,35.93
2022-11-14T17:59:51.177Z,41.17
2022-11-14T18:03:11.104Z,38.93
2022-11-14T18:06:31.019Z,35.27
2022-11-14T18:09:51.213Z,38.20
2022-11-14T18:13:11.164Z,37.30
2022-11-14T18:16:50.587Z,34.93
2022-11-14T18:20:11.309Z,29.03
2022-11-14T18:23:31.579Z,26.73
2022-11-14T18:26:52.344Z,29.03
2022-11-14T18:30:39.781Z,27.43
2022-11-14T18:33:53.397Z,25.53
2022-11-14T18:37:13.292Z,24.77
2022-11-14T18:40:33.280Z,24.80
2022-11-14T18:43:58.191Z,24.43
2022-11-14T18:47:21.112Z,20.37
2022-11-14T18:50:41.478Z,21.73
2022-11-14T18:54:01.645Z,21.33
2022-11-14T18:57:21.577Z,20.33
2022-11-14T19:00:41.733Z,22.03
2022-11-14T19:04:03.744Z,22.47
2022-11-14T19:07:25.343Z,25.50
2022-11-14T19:10:45.680Z,34.90
2022-11-14T19:14:06.229Z,25.33
2022-11-14T19:17:26.481Z,19.50
2022-11-14T19:20:59.814Z,18.53
2022-11-14T19:24:20.357Z,17.37
2022-11-14T19:27:40.253Z,18.23
2022-11-14T19:31:01.296Z,17.57
2022-11-14T19:34:21.737Z,16.80
2022-11-14T19:37:41.734Z,16.43
2022-11-14T19:41:08.821Z,16.47
2022-11-14T19:44:29.045Z,18.87
2022-11-14T19:47:48.914Z,20.13
2022-11-14T19:51:12.940Z,20.47
2022-11-14T19:54:33.160Z,17.90
2022-11-14T19:57:53.292Z,19.67
2022-11-14T20:01:14.804Z,16.17
2022-11-14T20:04:37.897Z,17.23
2022-11-14T20:07:58.174Z,16.57
2022-11-14T20:11:18.804Z,18.83
2022-11-14T20:14:48.060Z,16.80
2022-11-14T20:18:09.367Z,17.03
2022-11-14T20:21:34.018Z,18.07
2022-11-14T20:24:54.268Z,17.43
2022-11-14T20:28:14.681Z,18.40
2022-11-14T20:31:45.678Z,25.87
2022-11-14T20:35:06.203Z,19.50
2022-11-14T20:38:28.222Z,18.60
2022-11-14T20:41:49.970Z,17.40
2022-11-14T20:45:17.432Z,17.70
2022-11-14T20:48:38.031Z,17.83
2022-11-14T20:51:58.567Z,15.57
2022-11-14T20:55:19.373Z,17.73
2022-11-14T20:58:40.474Z,16.00
2022-11-14T21:02:05.560Z,17.23
2022-11-14T21:05:25.680Z,16.60
2022-11-14T21:08:47.812Z,15.60
2022-11-14T21:12:09.944Z,17.13
2022-11-14T21:15:30.261Z,17.63
2022-11-14T21:18:54.224Z,17.37
2022-11-14T21:22:14.645Z,18.00
2022-11-14T21:25:35.560Z,17.63
2022-11-14T21:28:57.246Z,17.37
2022-11-14T21:32:17.549Z,17.53
2022-11-14T21:35:37.549Z,17.93
2022-11-14T21:38:59.313Z,18.10
2022-11-14T21:42:19.509Z,17.50
2022-11-14T21:45:42.607Z,18.20
2022-11-14T21:49:02.621Z,30.73
2022-11-14T21:52:22.627Z,16.57
2022-11-14T21:55:43.656Z,17.83
2022-11-14T21:59:14.433Z,15.63
2022-11-14T22:02:53.530Z,15.80
2022-11-14T22:06:13.713Z,15.73
2022-11-14T22:09:34.203Z,14.73
2022-11-14T22:12:54.251Z,15.43
2022-11-14T22:16:17.680Z,15.83
2022-11-14T22:19:37.556Z,14.83
2022-11-14T22:22:57.487Z,14.87
2022-11-14T22:26:17.593Z,15.27
2022-11-14T22:29:37.457Z,14.23
2022-11-14T22:32:59.081Z,13.53
2022-11-14T22:36:20.228Z,14.07
2022-11-14T22:39:40.341Z,13.13
2022-11-14T22:43:00.467Z,14.83
2022-11-14T22:46:20.740Z,14.90
2022-11-14T22:49:41.199Z,14.43
2022-11-14T22:53:01.201Z,14.03
2022-11-14T22:56:22.372Z,15.27
2022-11-14T22:59:42.490Z,14.57
2022-11-14T23:03:02.665Z,16.57
2022-11-14T23:06:23.667Z,14.57
2022-11-14T23:09:43.829Z,17.33
2022-11-14T23:13:04.202Z,17.17
2022-11-14T23:16:26.131Z,17.40
2022-11-14T23:19:46.278Z,17.37
2022-11-14T23:23:06.336Z,18.07
2022-11-14T23:26:26.849Z,16.47
2022-11-14T23:29:46.959Z,16.53
2022-11-14T23:33:06.846Z,16.43
2022-11-14T23:36:27.184Z,16.63
2022-11-14T23:39:47.404Z,16.63
2022-11-14T23:43:07.408Z,17.10
2022-11-14T23:46:27.696Z,17.70
2022-11-14T23:49:47.591Z,18.60
2022-11-14T23:53:08.000Z,17.67
2022-11-14T23:56:27.871Z,15.37
2022-11-14T23:59:48.104Z,14.63
